Time;durP1;ratioP1;P1;durP2;ratioP2;P2;SDS_P1;SDS_P2;PMS_P1;PMS_P2;Temp;Humidity;BMP_temperature;BMP_pressure;BME280_temperature;BME280_humidity;BME280_pressure;Samples;Min_cycle;Max_cycle;Signal;HPM_P1;HPM_P2
2022/06/08 00:01:59;;;;;;;9.73;5.90;;;8.80;99.90;;;;;;5087738;28;20057;-85
2022/06/08 00:04:25;;;;;;;8.90;5.43;;;8.80;99.90;;;;;;5066005;28;20043;-87
2022/06/08 00:06:52;;;;;;;8.93;5.60;;;8.80;99.90;;;;;;5061631;28;20525;-85
2022/06/08 00:09:18;;;;;;;10.52;6.13;;;8.80;99.90;;;;;;5085542;28;20109;-85
2022/06/08 00:11:45;;;;;;;10.05;6.95;;;8.80;99.90;;;;;;5073507;28;20050;-88
2022/06/08 00:14:12;;;;;;;9.15;6.10;;;8.80;99.90;;;;;;5067480;28;20564;-85
2022/06/08 00:16:38;;;;;;;10.43;6.65;;;8.80;99.90;;;;;;5082210;28;20455;-85
2022/06/08 00:19:04;;;;;;;11.27;6.25;;;8.70;99.90;;;;;;5090078;28;20122;-85
2022/06/08 00:21:30;;;;;;;12.02;6.40;;;8.60;99.90;;;;;;5072992;28;20120;-85
2022/06/08 00:23:55;;;;;;;10.73;7.30;;;8.60;99.90;;;;;;5085764;28;20133;-85
2022/06/08 00:26:24;;;;;;;12.80;7.90;;;8.60;99.90;;;;;;5081583;28;20096;-85
2022/06/08 00:28:50;;;;;;;11.98;7.80;;;8.50;99.90;;;;;;5083593;28;20048;-91
2022/06/08 00:31:16;;;;;;;12.95;7.50;;;8.50;99.90;;;;;;5074362;28;20461;-84
2022/06/08 00:33:42;;;;;;;10.30;7.35;;;8.50;99.90;;;;;;5082685;28;20075;-85
2022/06/08 00:36:08;;;;;;;11.88;8.00;;;8.50;99.90;;;;;;5080265;28;20114;-87
2022/06/08 00:38:35;;;;;;;20.30;10.02;;;8.50;99.90;;;;;;5083768;28;20056;-85
2022/06/08 00:41:18;;;;;;;18.98;9.57;;;8.40;99.90;;;;;;5081480;28;20047;-86
2022/06/08 00:43:44;;;;;;;16.05;9.90;;;8.40;99.90;;;;;;5082270;28;20044;-85
2022/06/08 00:46:11;;;;;;;18.38;10.32;;;8.40;99.90;;;;;;5055538;28;20387;-88
2022/06/08 00:48:48;;;;;;;13.88;9.15;;;8.30;99.90;;;;;;5068815;28;20044;-85
2022/06/08 00:51:15;;;;;;;16.50;9.73;;;8.40;99.90;;;;;;5062597;28;20044;-87
2022/06/08 00:53:55;;;;;;;19.75;10.30;;;8.40;99.90;;;;;;5102826;28;20050;-85
2022/06/08 00:56:27;;;;;;;25.10;10.90;;;8.40;99.90;;;;;;5079680;28;20071;-85
2022/06/08 00:58:55;;;;;;;18.40;10.60;;;8.40;99.90;;;;;;5099066;28;20044;-88
2022/06/08 01:01:20;;;;;;;19.35;10.52;;;8.40;99.90;;;;;;5050100;28;20044;-85
2022/06/08 01:03:46;;;;;;;20.23;11.02;;;8.40;99.90;;;;;;5081516;28;20435;-85
2022/06/08 01:06:19;;;;;;;17.88;10.98;;;8.40;99.90;;;;;;5066571;28;20058;-86
2022/06/08 01:08:48;;;;;;;21.38;10.30;;;8.30;99.90;;;;;;5072814;28;20040;-85
2022/06/08 01:11:23;;;;;;;11.23;6.45;;;8.30;99.90;;;;;;5087741;28;20606;-85
2022/06/08 01:13:50;;;;;;;12.50;6.97;;;8.40;99.90;;;;;;5075970;28;20079;-85
2022/06/08 01:16:16;;;;;;;11.30;6.60;;;8.30;99.90;;;;;;5084320;28;20055;-85
2022/06/08 01:18:42;;;;;;;10.32;7.25;;;8.30;99.90;;;;;;5069560;28;20044;-85
2022/06/08 01:21:23;;;;;;;11.35;7.15;;;8.30;99.90;;;;;;5083288;28;20430;-85
2022/06/08 01:24:00;;;;;;;13.40;7.35;;;8.20;99.90;;;;;;5067950;28;20036;-85
2022/06/08 01:26:47;;;;;;;17.63;8.68;;;8.20;99.90;;;;;;5066513;28;20047;-86
2022/06/08 01:29:22;;;;;;;20.88;10.88;;;8.20;99.90;;;;;;5062512;28;20044;-84
2022/06/08 01:32:26;;;;;;;20.45;10.25;;;8.20;99.90;;;;;;5073102;28;20047;-86
2022/06/08 01:35:28;;;;;;;25.45;12.40;;;8.20;99.90;;;;;;5059323;28;20052;-85
2022/06/08 01:38:17;;;;;;;22.10;12.13;;;8.20;99.90;;;;;;5065575;28;20586;-85
2022/06/08 01:40:50;;;;;;;20.85;11.35;;;8.30;99.90;;;;;;5069427;28;20044;-85
2022/06/08 01:43:54;;;;;;;21.13;11.80;;;8.30;99.90;;;;;;5082975;28;20076;-85
2022/06/08 01:46:26;;;;;;;18.15;10.23;;;8.20;99.90;;;;;;5067533;28;20071;-87
2022/06/08 01:49:20;;;;;;;11.48;6.88;;;8.20;99.90;;;;;;5095952;28;20460;-85
2022/06/08 01:52:15;;;;;;;9.75;6.35;;;8.30;99.90;;;;;;5087528;28;20109;-86
2022/06/08 01:55:10;;;;;;;10.48;6.47;;;8.30;99.90;;;;;;5078085;28;20056;-85
2022/06/08 01:57:54;;;;;;;11.13;6.47;;;8.30;99.90;;;;;;5066325;28;20359;-84
2022/06/08 02:00:43;;;;;;;18.67;10.77;;;8.20;99.90;;;;;;5084361;28;20140;-87
2022/06/08 02:03:39;;;;;;;23.52;12.57;;;8.20;99.90;;;;;;5089501;28;20097;-85
2022/06/08 02:06:12;;;;;;;23.48;14.02;;;8.20;99.90;;;;;;5095313;28;20087;-87
2022/06/08 02:08:48;;;;;;;24.95;12.70;;;8.20;99.90;;;;;;5063900;28;20052;-85
2022/06/08 02:11:17;;;;;;;22.88;12.77;;;8.20;99.90;;;;;;5067483;28;20047;-85
2022/06/08 02:13:56;;;;;;;27.38;14.77;;;8.20;99.90;;;;;;5088213;28;20055;-85
2022/06/08 02:16:38;;;;;;;28.45;14.00;;;8.20;99.90;;;;;;5096869;28;20059;-85
2022/06/08 02:19:12;;;;;;;27.67;14.02;;;8.20;99.90;;;;;;5092527;28;20075;-88
2022/06/08 02:22:06;;;;;;;33.67;15.02;;;8.20;99.90;;;;;;5092561;28;20048;-84
2022/06/08 02:24:39;;;;;;;35.88;16.48;;;8.20;99.90;;;;;;5068566;28;20060;-85
2022/06/08 02:27:19;;;;;;;31.77;15.13;;;8.30;99.90;;;;;;5060874;28;20449;-89
2022/06/08 02:29:54;;;;;;;35.08;17.35;;;8.30;99.90;;;;;;5076118;28;20051;-85
2022/06/08 02:35:27;;;;;;;31.10;16.80;;;8.30;99.90;;;;;;5090655;28;20062;-85
2022/06/08 02:37:57;;;;;;;35.13;15.55;;;8.20;99.90;;;;;;5092955;28;20057;-85
2022/06/08 02:40:27;;;;;;;33.42;16.50;;;8.20;99.90;;;;;;5067845;28;20043;-85
2022/06/08 02:43:04;;;;;;;34.95;16.65;;;8.30;99.90;;;;;;5089522;28;20051;-85
2022/06/08 02:45:37;;;;;;;38.05;16.52;;;8.30;99.90;;;;;;5091125;28;20477;-85
2022/06/08 02:48:09;;;;;;;31.15;15.63;;;8.30;99.90;;;;;;5075941;28;20511;-85
2022/06/08 02:50:38;;;;;;;32.85;16.27;;;8.30;99.90;;;;;;5073091;28;20040;-85
2022/06/08 02:53:30;;;;;;;34.00;17.50;;;8.30;99.90;;;;;;5095229;28;20051;-85
2022/06/08 02:56:08;;;;;;;29.70;14.80;;;8.30;99.90;;;;;;5062871;28;20163;-85
2022/06/08 02:58:56;;;;;;;33.42;16.90;;;8.30;99.90;;;;;;5078549;28;20130;-85
2022/06/08 03:02:04;;;;;;;46.40;19.05;;;8.40;99.90;;;;;;5085717;28;20523;-85
2022/06/08 03:04:40;;;;;;;41.90;19.80;;;8.40;99.90;;;;;;5074825;28;20051;-86
2022/06/08 03:07:14;;;;;;;35.28;17.45;;;8.40;99.90;;;;;;5065188;28;20053;-85
2022/06/08 03:09:41;;;;;;;44.28;20.38;;;8.40;99.90;;;;;;5057506;28;20126;-85
2022/06/08 03:12:14;;;;;;;41.97;20.00;;;8.40;99.90;;;;;;5084308;28;20044;-85
2022/06/08 03:14:42;;;;;;;44.50;21.30;;;8.40;99.90;;;;;;5077093;28;20047;-86
2022/06/08 03:17:10;;;;;;;45.53;22.10;;;8.50;99.90;;;;;;5056337;28;20133;-85
2022/06/08 03:19:37;;;;;;;40.40;21.40;;;8.50;99.90;;;;;;5072582;28;20040;-85
2022/06/08 03:22:05;;;;;;;44.30;20.77;;;8.50;99.90;;;;;;5084203;28;20047;-85
2022/06/08 03:24:31;;;;;;;35.88;16.17;;;8.50;99.90;;;;;;5083423;28;20051;-85
2022/06/08 03:27:05;;;;;;;30.42;15.65;;;8.50;99.90;;;;;;5082903;28;20248;-86
2022/06/08 03:29:32;;;;;;;38.53;17.95;;;8.50;99.90;;;;;;5084697;28;20044;-85
2022/06/08 03:31:58;;;;;;;35.22;17.77;;;8.40;99.90;;;;;;5064219;28;20116;-86
2022/06/08 03:34:24;;;;;;;31.95;15.98;;;8.40;99.90;;;;;;5092139;28;20071;-85
2022/06/08 03:36:49;;;;;;;36.65;17.55;;;8.30;99.90;;;;;;5085454;28;20162;-86
2022/06/08 03:39:16;;;;;;;31.50;16.42;;;8.30;99.90;;;;;;5066112;28;20599;-90
2022/06/08 03:41:44;;;;;;;39.33;17.48;;;8.40;99.90;;;;;;5065293;28;20040;-86
2022/06/08 03:44:10;;;;;;;29.05;15.32;;;8.30;99.90;;;;;;5076575;28;20052;-85
2022/06/08 03:46:44;;;;;;;32.80;15.98;;;8.30;99.90;;;;;;5063572;28;20396;-86
2022/06/08 03:49:11;;;;;;;33.40;17.55;;;8.40;99.90;;;;;;5066058;28;20040;-86
2022/06/08 03:51:38;;;;;;;37.35;18.13;;;8.30;99.90;;;;;;5039768;28;20040;-85
2022/06/08 03:54:19;;;;;;;44.25;19.13;;;8.40;99.90;;;;;;5073888;28;20130;-86
2022/06/08 03:56:49;;;;;;;37.25;18.65;;;8.50;99.90;;;;;;5066513;28;20054;-87
2022/06/08 03:59:16;;;;;;;43.00;18.80;;;8.50;99.90;;;;;;5065121;28;20104;-87
2022/06/08 04:01:42;;;;;;;46.10;20.80;;;8.50;99.90;;;;;;5077262;28;20357;-86
2022/06/08 04:04:08;;;;;;;48.80;21.80;;;8.60;99.90;;;;;;5040516;28;20048;-86
2022/06/08 04:06:34;;;;;;;41.88;20.42;;;8.70;99.90;;;;;;5082552;28;20122;-86
2022/06/08 04:09:00;;;;;;;49.42;22.42;;;8.90;99.90;;;;;;5089072;28;20043;-86
2022/06/08 04:11:26;;;;;;;51.80;24.40;;;9.00;99.90;;;;;;5066885;28;20044;-86
2022/06/08 04:13:52;;;;;;;42.25;21.20;;;9.20;99.90;;;;;;5062379;28;20051;-85
2022/06/08 04:16:19;;;;;;;40.22;21.40;;;9.30;99.90;;;;;;5058376;28;20149;-85
2022/06/08 04:18:45;;;;;;;49.17;23.95;;;9.60;99.90;;;;;;5081284;28;20129;-86
2022/06/08 04:21:13;;;;;;;60.72;27.02;;;9.80;99.90;;;;;;5079575;28;20067;-87
2022/06/08 04:23:40;;;;;;;55.35;27.30;;;10.00;99.90;;;;;;5066682;28;20043;-85
2022/06/08 04:26:07;;;;;;;53.72;27.38;;;10.20;99.90;;;;;;5080236;28;20059;-86
2022/06/08 04:28:34;;;;;;;47.33;24.98;;;10.50;99.90;;;;;;5077992;28;20039;-87
2022/06/08 04:30:59;;;;;;;53.30;27.08;;;10.60;99.90;;;;;;5057840;28;20062;-85
2022/06/08 04:33:25;;;;;;;50.95;26.88;;;10.70;99.90;;;;;;5084027;28;20115;-90
2022/06/08 04:35:51;;;;;;;52.60;26.17;;;10.90;99.90;;;;;;5073673;28;20036;-84
2022/06/08 04:38:17;;;;;;;49.47;26.65;;;11.00;99.90;;;;;;5069566;28;20046;-85
2022/06/08 04:40:44;;;;;;;50.58;26.30;;;11.10;99.90;;;;;;5082306;28;20032;-85
2022/06/08 04:43:09;;;;;;;47.35;26.20;;;11.20;99.90;;;;;;5081482;28;20137;-86
2022/06/08 04:45:36;;;;;;;48.03;25.95;;;11.30;99.90;;;;;;5070573;28;20051;-86
2022/06/08 04:48:04;;;;;;;50.28;25.85;;;11.40;99.90;;;;;;5068899;28;20427;-86
2022/06/08 04:50:30;;;;;;;44.90;24.80;;;11.50;99.90;;;;;;5073812;28;20043;-85
2022/06/08 04:52:56;;;;;;;40.10;24.27;;;11.50;99.90;;;;;;5084980;28;20104;-85
2022/06/08 04:55:25;;;;;;;47.47;25.38;;;11.70;99.90;;;;;;5068560;28;20047;-87
2022/06/08 04:57:51;;;;;;;44.40;25.25;;;11.80;99.90;;;;;;5092944;28;20044;-84
2022/06/08 05:00:23;;;;;;;47.47;25.52;;;11.90;99.90;;;;;;5076642;28;20059;-85
2022/06/08 05:02:51;;;;;;;44.53;25.35;;;12.00;99.90;;;;;;5089103;28;20115;-85
2022/06/08 05:05:21;;;;;;;42.10;25.23;;;12.10;99.90;;;;;;5070257;28;20047;-85
2022/06/08 05:07:48;;;;;;;49.67;26.88;;;12.10;99.90;;;;;;5068671;28;20163;-86
2022/06/08 05:10:15;;;;;;;43.00;25.35;;;12.30;99.90;;;;;;5085486;28;20052;-84
2022/06/08 05:12:45;;;;;;;45.35;25.88;;;12.30;99.90;;;;;;5069629;28;20442;-85
2022/06/08 05:15:15;;;;;;;42.72;25.85;;;12.40;99.90;;;;;;5058865;28;20489;-85
2022/06/08 05:17:43;;;;;;;43.63;26.80;;;12.50;99.90;;;;;;5080036;28;20489;-86
2022/06/08 05:20:11;;;;;;;41.90;25.77;;;12.50;99.90;;;;;;5074865;28;20378;-85
2022/06/08 05:22:37;;;;;;;41.92;25.05;;;12.60;99.90;;;;;;5049983;28;20097;-86
2022/06/08 05:25:05;;;;;;;47.25;25.05;;;12.60;99.90;;;;;;5072787;28;20048;-85
2022/06/08 05:27:31;;;;;;;53.35;27.23;;;12.70;99.90;;;;;;5073036;28;20102;-85
2022/06/08 05:29:56;;;;;;;48.42;25.85;;;12.80;99.90;;;;;;5086321;28;20044;-85
2022/06/08 05:32:25;;;;;;;43.22;26.38;;;12.80;99.90;;;;;;5094831;28;20043;-85
2022/06/08 05:34:59;;;;;;;45.03;26.33;;;12.90;99.90;;;;;;5087660;28;20091;-86
2022/06/08 05:37:24;;;;;;;45.22;27.00;;;13.00;99.90;;;;;;5062241;28;20063;-86
2022/06/08 05:39:50;;;;;;;46.10;24.70;;;13.10;99.90;;;;;;5069319;28;20047;-85
2022/06/08 05:42:19;;;;;;;43.90;26.80;;;13.20;99.90;;;;;;5065799;28;20039;-85
2022/06/08 05:44:44;;;;;;;39.83;25.65;;;13.40;99.90;;;;;;5055193;28;20064;-85
2022/06/08 05:47:11;;;;;;;37.17;23.67;;;13.50;99.90;;;;;;5078702;28;20082;-86
2022/06/08 05:49:37;;;;;;;39.47;26.45;;;13.70;99.90;;;;;;5061102;28;20404;-88
2022/06/08 05:52:34;;;;;;;;;;;;;;;;;;;;;
2022/06/08 05:55:02;;;;;;;40.50;26.00;;;13.80;99.90;;;;;;5066793;28;20133;-84
2022/06/08 05:57:28;;;;;;;40.08;24.90;;;13.90;99.90;;;;;;5050206;28;20047;-83
2022/06/08 05:59:54;;;;;;;38.05;25.45;;;14.10;99.90;;;;;;5063555;28;20388;-83
2022/06/08 06:02:20;;;;;;;38.30;24.55;;;14.20;99.90;;;;;;5083144;28;20047;-86
2022/06/08 06:05:16;;;;;;;;;;;;;;;;;;;;;
2022/06/08 06:07:42;;;;;;;35.33;23.45;;;14.40;99.90;;;;;;5075525;28;20044;-89
2022/06/08 06:10:10;;;;;;;33.70;23.15;;;14.50;99.90;;;;;;5089340;28;20063;-86
2022/06/08 06:12:35;;;;;;;33.60;24.00;;;14.50;99.90;;;;;;5087830;28;20051;-86
2022/06/08 06:15:02;;;;;;;32.67;22.25;;;14.60;99.90;;;;;;5073983;28;20040;-86
2022/06/08 06:17:29;;;;;;;33.15;22.48;;;14.80;99.90;;;;;;5060307;28;20484;-86
2022/06/08 06:19:56;;;;;;;30.83;21.45;;;14.80;99.90;;;;;;5075060;28;21394;-86
2022/06/08 06:22:21;;;;;;;26.13;19.20;;;15.00;99.90;;;;;;5092502;28;20493;-86
2022/06/08 06:24:47;;;;;;;27.45;20.23;;;15.10;99.90;;;;;;5047137;28;20043;-85
2022/06/08 06:27:13;;;;;;;28.38;20.15;;;15.30;99.90;;;;;;5067792;28;20043;-85
2022/06/08 06:29:38;;;;;;;26.88;19.95;;;15.30;99.90;;;;;;5093248;28;20499;-86
2022/06/08 06:32:07;;;;;;;26.63;19.42;;;15.30;99.90;;;;;;5075409;28;20090;-86
2022/06/08 06:34:33;;;;;;;27.40;18.70;;;15.30;99.90;;;;;;5096176;28;20544;-86
2022/06/08 06:36:59;;;;;;;23.08;17.42;;;15.20;99.90;;;;;;5086775;28;20123;-85
2022/06/08 06:39:29;;;;;;;21.75;17.77;;;15.20;99.90;;;;;;5066735;28;20512;-87
2022/06/08 06:41:57;;;;;;;20.85;16.20;;;15.30;99.90;;;;;;5064857;28;20051;-85
2022/06/08 06:44:24;;;;;;;21.73;16.48;;;15.50;99.90;;;;;;5093520;28;20105;-87
2022/06/08 06:46:49;;;;;;;21.25;15.23;;;15.90;99.90;;;;;;5067018;28;20783;-86
2022/06/08 06:49:15;;;;;;;17.10;13.85;;;16.10;99.90;;;;;;5046442;28;20095;-86
2022/06/08 06:51:41;;;;;;;20.40;14.95;;;16.30;99.90;;;;;;5060253;28;20397;-87
2022/06/08 06:54:10;;;;;;;16.95;14.15;;;16.50;99.90;;;;;;5061182;28;20035;-84
2022/06/08 06:56:36;;;;;;;19.05;14.82;;;16.70;99.90;;;;;;5068288;28;20043;-84
2022/06/08 06:59:03;;;;;;;14.88;13.05;;;16.90;99.90;;;;;;5079882;28;20074;-84
2022/06/08 07:01:29;;;;;;;16.10;13.18;;;17.00;99.90;;;;;;5090019;28;20126;-84
2022/06/08 07:03:57;;;;;;;15.50;13.15;;;17.10;99.90;;;;;;5067634;28;20449;-85
2022/06/08 07:06:22;;;;;;;19.27;12.60;;;17.30;99.90;;;;;;5062908;28;20059;-85
2022/06/08 07:08:48;;;;;;;15.32;12.35;;;17.50;99.90;;;;;;5091890;28;20405;-84
2022/06/08 07:11:32;;;;;;;15.73;11.52;;;17.70;99.90;;;;;;5089416;28;20044;-84
2022/06/08 07:13:59;;;;;;;12.57;10.70;;;18.00;99.90;;;;;;5074667;28;20116;-84
2022/06/08 07:16:25;;;;;;;11.63;9.70;;;18.30;99.90;;;;;;5072573;28;20464;-85
2022/06/08 07:18:51;;;;;;;11.38;9.35;;;18.50;99.90;;;;;;5088756;28;20396;-84
2022/06/08 07:21:20;;;;;;;9.55;8.65;;;18.80;99.90;;;;;;5062830;28;20438;-85
2022/06/08 07:23:46;;;;;;;9.25;7.75;;;19.10;99.90;;;;;;5076279;28;20087;-86
2022/06/08 07:26:12;;;;;;;9.88;7.55;;;19.30;99.90;;;;;;5058512;28;20066;-85
2022/06/08 07:28:38;;;;;;;7.28;6.55;;;19.40;99.90;;;;;;5091875;28;20492;-85
2022/06/08 07:31:04;;;;;;;8.82;6.72;;;19.60;99.90;;;;;;5074129;28;20512;-85
2022/06/08 07:33:30;;;;;;;8.10;6.85;;;19.80;99.90;;;;;;5078464;28;20047;-85
2022/06/08 07:35:57;;;;;;;9.75;6.85;;;19.90;99.90;;;;;;5062880;28;20139;-85
2022/06/08 07:38:23;;;;;;;8.27;6.40;;;19.90;99.90;;;;;;5084367;28;20046;-86
2022/06/08 07:40:48;;;;;;;8.52;5.70;;;20.00;99.90;;;;;;5061662;28;20036;-87
2022/06/08 07:43:14;;;;;;;9.07;5.97;;;20.20;99.90;;;;;;5066837;28;20051;-85
2022/06/08 07:45:40;;;;;;;6.97;5.55;;;20.10;99.90;;;;;;5056200;28;20143;-85
2022/06/08 07:50:50;;;;;;;6.22;5.35;;;20.40;99.90;;;;;;5068933;28;20072;-87
2022/06/08 07:53:16;;;;;;;7.03;5.15;;;20.70;99.90;;;;;;5056272;28;20036;-85
2022/06/08 07:55:42;;;;;;;6.25;4.88;;;20.90;99.90;;;;;;5067321;28;20104;-85
2022/06/08 07:58:08;;;;;;;5.70;4.40;;;20.90;99.90;;;;;;5092220;28;20047;-85
2022/06/08 08:00:34;;;;;;;4.22;3.80;;;20.80;99.90;;;;;;5073211;28;20043;-85
2022/06/08 08:03:00;;;;;;;6.55;3.95;;;20.70;99.90;;;;;;5084261;28;20044;-85
2022/06/08 08:05:27;;;;;;;4.45;3.67;;;20.70;99.90;;;;;;5070869;28;20044;-84
2022/06/08 08:07:53;;;;;;;5.40;3.50;;;21.00;99.90;;;;;;5088076;28;20055;-87
2022/06/08 08:10:24;;;;;;;5.07;3.67;;;21.30;99.90;;;;;;5076375;28;20055;-85
2022/06/08 08:12:51;;;;;;;6.35;3.83;;;21.60;99.90;;;;;;5078001;28;20070;-85
2022/06/08 08:15:17;;;;;;;4.28;3.80;;;22.10;99.90;;;;;;5091946;28;20131;-87
2022/06/08 08:17:45;;;;;;;5.28;3.28;;;22.70;99.90;;;;;;5086081;28;20047;-87
2022/06/08 08:20:14;;;;;;;5.38;3.47;;;23.10;99.90;;;;;;5068638;28;20039;-87
2022/06/08 08:22:39;;;;;;;6.82;3.97;;;23.10;99.90;;;;;;5073225;28;20101;-88
2022/06/08 08:25:06;;;;;;;6.57;3.10;;;23.10;99.90;;;;;;5072112;28;20044;-88
2022/06/08 08:27:31;;;;;;;3.03;2.00;;;23.20;99.90;;;;;;5087977;28;20047;-86
2022/06/08 08:29:57;;;;;;;2.97;1.92;;;23.00;99.90;;;;;;5061944;28;20047;-86
2022/06/08 08:32:23;;;;;;;3.67;2.20;;;23.20;99.90;;;;;;5092384;28;20131;-85
2022/06/08 08:34:48;;;;;;;3.28;2.05;;;23.90;99.90;;;;;;5088739;28;20126;-87
2022/06/08 08:37:14;;;;;;;5.28;2.00;;;24.50;99.90;;;;;;5067448;28;20113;-88
2022/06/08 08:39:40;;;;;;;4.95;2.22;;;24.80;99.90;;;;;;5048724;28;20052;-88
2022/06/08 08:42:21;;;;;;;3.42;2.05;;;24.50;99.90;;;;;;5063114;28;20135;-88
2022/06/08 08:44:49;;;;;;;2.85;1.88;;;23.90;99.90;;;;;;5066482;28;20458;-88
2022/06/08 08:47:50;;;;;;;3.85;2.05;;;23.60;99.90;;;;;;5073594;28;20511;-88
2022/06/08 08:50:20;;;;;;;5.05;2.10;;;23.50;99.90;;;;;;5092589;28;20112;-89
2022/06/08 08:53:07;;;;;;;3.65;2.00;;;23.30;99.90;;;;;;5090677;28;20044;-89
2022/06/08 08:55:44;;;;;;;2.20;2.00;;;23.40;99.90;;;;;;5084141;28;20088;-88
2022/06/08 08:58:14;;;;;;;3.42;2.03;;;23.40;99.90;;;;;;5058713;28;20148;-88
2022/06/08 09:00:43;;;;;;;6.93;2.47;;;23.10;99.90;;;;;;5058069;28;20048;-88
2022/06/08 09:03:39;;;;;;;2.05;1.80;;;23.00;99.90;;;;;;5070719;28;20048;-89
2022/06/08 09:06:12;;;;;;;3.95;2.38;;;23.10;99.90;;;;;;5089404;28;20110;-87
2022/06/08 09:08:40;;;;;;;4.03;2.50;;;24.20;99.90;;;;;;5084671;28;20122;-87
2022/06/08 09:11:22;;;;;;;2.92;2.22;;;25.30;99.90;;;;;;5068943;28;20055;-87
2022/06/08 09:13:56;;;;;;;4.97;3.15;;;25.30;99.90;;;;;;5073161;28;20131;-87
2022/06/08 09:16:43;;;;;;;4.68;3.20;;;24.90;99.90;;;;;;5059480;28;20057;-88
2022/06/08 09:19:24;;;;;;;6.60;4.80;;;24.60;99.90;;;;;;5086774;28;20062;-90
2022/06/08 09:22:10;;;;;;;7.70;3.95;;;24.60;99.90;;;;;;5073121;28;20485;-88
2022/06/08 09:24:45;;;;;;;5.63;4.53;;;24.40;99.90;;;;;;5086490;28;20108;-87
2022/06/08 09:27:17;;;;;;;4.70;3.50;;;24.50;99.90;;;;;;5084552;28;20052;-87
2022/06/08 09:29:54;;;;;;;5.47;4.00;;;24.30;99.90;;;;;;5075165;28;20075;-88
2022/06/08 09:32:44;;;;;;;5.10;3.60;;;24.30;94.60;;;;;;5080758;28;20048;-88
2022/06/08 09:35:28;;;;;;;4.85;3.50;;;24.10;99.90;;;;;;5083240;28;20085;-87
2022/06/08 09:38:14;;;;;;;6.00;4.07;;;24.60;99.90;;;;;;5063843;28;20047;-87
2022/06/08 09:40:54;;;;;;;4.70;4.00;;;25.00;97.90;;;;;;5088959;28;20079;-87
2022/06/08 09:44:04;;;;;;;5.20;3.72;;;25.00;93.50;;;;;;5085723;28;20564;-88
2022/06/08 09:53:01;;;;;;;5.18;3.10;;;25.00;89.10;;;;;;5080865;28;20393;-87
2022/06/08 09:55:48;;;;;;;6.05;3.67;;;25.70;90.80;;;;;;5071073;28;20098;-87
2022/06/08 09:58:20;;;;;;;4.75;3.20;;;25.40;83.90;;;;;;5077973;28;20127;-88
2022/06/08 10:01:08;;;;;;;5.40;3.45;;;24.60;82.40;;;;;;5089076;28;20047;-88
2022/06/08 10:03:55;;;;;;;6.72;3.70;;;23.80;91.80;;;;;;5069850;28;20051;-87
2022/06/08 10:06:25;;;;;;;5.72;3.72;;;23.20;94.90;;;;;;5073994;28;20047;-88
2022/06/08 10:09:13;;;;;;;4.63;3.60;;;23.00;97.30;;;;;;5089847;28;20056;-88
2022/06/08 10:11:43;;;;;;;5.43;3.70;;;23.50;98.90;;;;;;5080570;28;20047;-88
2022/06/08 10:14:42;;;;;;;8.07;3.42;;;24.50;93.30;;;;;;5088246;28;20092;-89
2022/06/08 10:17:17;;;;;;;4.60;3.25;;;25.00;89.20;;;;;;5079361;28;20059;-89
2022/06/08 10:20:04;;;;;;;4.10;3.13;;;25.10;85.30;;;;;;5093460;28;20150;-87
2022/06/08 10:22:39;;;;;;;4.90;3.40;;;25.20;82.10;;;;;;5074944;28;20492;-87
2022/06/08 10:25:40;;;;;;;5.22;3.55;;;25.20;78.70;;;;;;5089214;28;20060;-87
2022/06/08 10:28:33;;;;;;;5.57;3.13;;;25.10;82.50;;;;;;5091138;28;20066;-89
2022/06/08 10:31:23;;;;;;;4.18;3.20;;;25.10;82.80;;;;;;5057557;28;20043;-88
2022/06/08 10:34:21;;;;;;;4.53;3.05;;;25.00;79.30;;;;;;5096404;28;20477;-87
2022/06/08 10:36:51;;;;;;;4.07;2.38;;;25.30;82.60;;;;;;5062775;28;20043;-87
2022/06/08 10:39:18;;;;;;;2.72;2.13;;;25.60;73.70;;;;;;5075572;28;20396;-87
2022/06/08 10:44:47;;;;;;;2.40;1.98;;;26.90;65.40;;;;;;5060399;28;20394;-86
2022/06/08 10:47:13;;;;;;;2.72;2.22;;;26.30;66.50;;;;;;5090104;28;20083;-90
2022/06/08 10:49:38;;;;;;;5.15;2.30;;;25.50;66.80;;;;;;5088721;28;20067;-89
2022/06/08 10:52:19;;;;;;;4.20;2.00;;;24.80;71.70;;;;;;5077161;28;20066;-87
2022/06/08 10:54:54;;;;;;;5.82;2.40;;;24.40;75.30;;;;;;5077815;28;20184;-89
2022/06/08 10:57:39;;;;;;;5.07;2.53;;;24.80;74.60;;;;;;5081216;28;20047;-88
2022/06/08 11:00:19;;;;;;;6.43;2.70;;;25.50;76.70;;;;;;5067595;28;20450;-88
2022/06/08 11:03:02;;;;;;;5.00;2.80;;;26.20;67.60;;;;;;5073684;28;20388;-89
2022/06/08 11:05:38;;;;;;;3.63;2.45;;;26.40;67.10;;;;;;5073772;28;20365;-86
2022/06/08 11:08:07;;;;;;;5.25;2.80;;;26.70;65.20;;;;;;5079236;28;20040;-87
2022/06/08 11:10:45;;;;;;;3.58;2.42;;;27.20;63.50;;;;;;5057602;28;20050;-88
2022/06/08 11:13:22;;;;;;;4.13;2.60;;;27.20;64.30;;;;;;5076647;28;20047;-87
2022/06/08 11:16:11;;;;;;;6.30;3.53;;;27.10;64.20;;;;;;5082487;28;20406;-87
2022/06/08 11:19:05;;;;;;;3.40;2.50;;;27.00;61.90;;;;;;5067263;28;20054;-85
2022/06/08 11:21:40;;;;;;;6.03;2.45;;;27.00;61.80;;;;;;5057638;28;20048;-86
2022/06/08 11:24:18;;;;;;;4.85;2.38;;;26.90;61.80;;;;;;5060706;28;20059;-87
2022/06/08 11:26:48;;;;;;;3.78;2.42;;;26.90;60.90;;;;;;5075109;28;20173;-86
2022/06/08 11:29:17;;;;;;;5.25;3.28;;;27.20;63.00;;;;;;5089568;28;20400;-86
2022/06/08 11:31:43;;;;;;;4.63;3.50;;;27.40;60.20;;;;;;5069870;28;20161;-86
2022/06/08 11:34:20;;;;;;;4.53;3.08;;;27.40;59.60;;;;;;5076897;28;20082;-87
2022/06/08 11:37:12;;;;;;;4.68;2.80;;;26.80;57.10;;;;;;5073812;28;20047;-86
2022/06/08 11:39:59;;;;;;;5.28;3.25;;;26.20;60.90;;;;;;5059286;28;20048;-86
2022/06/08 11:42:29;;;;;;;6.43;3.35;;;25.70;62.40;;;;;;5074178;28;20039;-86
2022/06/08 11:44:56;;;;;;;4.70;3.40;;;25.20;63.20;;;;;;5061415;28;20089;-87
2022/06/08 11:47:22;;;;;;;7.75;3.00;;;24.70;66.40;;;;;;5082852;28;20043;-86
2022/06/08 11:49:58;;;;;;;5.70;2.63;;;24.30;70.80;;;;;;5065117;28;20046;-85
2022/06/08 11:52:23;;;;;;;4.57;2.72;;;24.10;73.50;;;;;;5074930;28;20092;-86
2022/06/08 11:55:08;;;;;;;4.68;3.20;;;24.00;73.30;;;;;;5083636;28;20047;-86
2022/06/08 11:57:35;;;;;;;3.22;2.80;;;23.90;72.30;;;;;;5072131;28;20126;-85
2022/06/08 12:00:06;;;;;;;8.63;3.47;;;23.50;75.40;;;;;;5087841;28;20043;-87
2022/06/08 12:02:39;;;;;;;5.85;2.92;;;23.00;78.40;;;;;;5070889;28;20132;-86
2022/06/08 12:05:10;;;;;;;4.40;3.47;;;22.50;85.30;;;;;;5073634;28;20486;-86
2022/06/08 12:08:01;;;;;;;9.02;4.38;;;21.90;96.30;;;;;;5088335;28;20048;-89
2022/06/08 12:10:31;;;;;;;9.63;6.10;;;20.40;99.90;;;;;;5069582;28;20043;-89
2022/06/08 12:12:58;;;;;;;8.02;4.90;;;18.90;99.90;;;;;;5073084;28;20058;-89
2022/06/08 12:15:56;;;;;;;6.78;3.47;;;18.10;99.90;;;;;;5039572;28;20055;-90
2022/06/08 12:18:25;;;;;;;6.60;3.20;;;17.30;99.90;;;;;;5071691;28;20055;-89
2022/06/08 12:21:09;;;;;;;7.78;1.80;;;16.60;99.90;;;;;;5089200;28;20048;-88
2022/06/08 12:24:13;;;;;;;6.43;1.80;;;16.10;99.90;;;;;;5068788;28;20062;-89
2022/06/08 12:26:53;;;;;;;7.43;2.33;;;15.70;99.90;;;;;;5052809;28;20103;-87
2022/06/08 12:29:37;;;;;;;7.97;2.65;;;15.50;99.90;;;;;;5080684;28;20054;-89
2022/06/08 12:32:06;;;;;;;8.82;2.58;;;15.70;99.90;;;;;;5069831;28;20078;-88
2022/06/08 12:34:45;;;;;;;7.78;2.22;;;16.00;99.90;;;;;;5069560;28;20046;-87
2022/06/08 12:37:36;;;;;;;6.18;2.22;;;16.10;99.90;;;;;;5067792;28;20046;-86
2022/06/08 12:40:17;;;;;;;8.75;3.22;;;16.00;99.90;;;;;;5085955;28;20048;-86
2022/06/08 12:43:13;;;;;;;7.97;3.65;;;15.90;99.90;;;;;;5089396;28;20146;-87
2022/06/08 12:45:45;;;;;;;9.07;2.53;;;15.80;99.90;;;;;;5072216;28;20052;-87
2022/06/08 12:48:32;;;;;;;8.02;2.80;;;15.70;99.90;;;;;;5076168;28;20058;-88
2022/06/08 12:50:58;;;;;;;;;;;15.50;99.90;;;;;;5063133;28;20114;-87
2022/06/08 12:53:24;;;;;;;9.50;3.10;;;15.50;99.90;;;;;;5091799;28;20007;-86
2022/06/08 12:55:52;;;;;;;8.05;2.75;;;15.40;99.90;;;;;;5070289;28;20712;-85
2022/06/08 12:58:20;;;;;;;8.73;2.97;;;15.40;99.90;;;;;;5082676;28;20053;-85
2022/06/08 13:00:53;;;;;;;7.43;3.22;;;15.40;99.90;;;;;;5090923;28;20051;-85
2022/06/08 13:03:28;;;;;;;7.68;2.75;;;15.40;99.90;;;;;;5089766;28;20047;-86
2022/06/08 13:05:55;;;;;;;6.72;3.75;;;15.40;99.90;;;;;;5060317;28;20097;-84
2022/06/08 13:08:25;;;;;;;4.90;3.30;;;15.50;99.90;;;;;;5084118;28;20065;-84
2022/06/08 13:10:54;;;;;;;11.38;4.50;;;15.50;99.90;;;;;;5075601;28;20582;-86
2022/06/08 13:13:25;;;;;;;8.13;3.95;;;15.60;99.90;;;;;;5085533;28;20044;-86
2022/06/08 13:15:52;;;;;;;7.20;3.65;;;15.70;99.90;;;;;;5059308;28;20040;-86
2022/06/08 13:18:23;;;;;;;13.48;4.82;;;15.80;99.90;;;;;;5055260;28;20481;-85
2022/06/08 13:20:51;;;;;;;10.02;5.25;;;15.80;99.90;;;;;;5060788;28;20047;-85
2022/06/08 13:23:17;;;;;;;9.88;5.43;;;15.90;99.90;;;;;;5083673;28;20047;-84
2022/06/08 13:25:46;;;;;;;11.82;6.40;;;16.10;99.90;;;;;;5056073;28;20122;-84
2022/06/08 13:28:14;;;;;;;15.25;7.35;;;16.20;99.90;;;;;;5072960;28;20039;-84